LDLO/LSZ METAR and TAF weather

Enter ICAO airport designator
Station Type Date Time Source
LDLO METAR 2019/08/24 07:00 UTC NOAA

LDLO 240700Z 01007KT CAVOK 28/19 Q1018


Station Type Date Time Source
LDLO Decoded METAR 2019/08/24 07:00 UTC NOAA

Station name not available
Aug 24, 2019 - 03:00 AM EDT / 2019.08.24 0700 UTC
Wind: from the N (010 degrees) at 8 MPH (7 KT):0
Visibility: greater than 7 mile(s):0
Temperature: 82 F (28 C)
Dew Point: 66 F (19 C)
Relative Humidity: 58%
Pressure (altimeter): 30.06 in. Hg (1018 hPa)
ob: LDLO 240700Z 01007KT CAVOK 28/19 Q1018
cycle: 7

Station Type Date Time Source
LDLO TAF 2019/08/24 07:12 UTC NOAA

TAF TAF LDLO 240610Z 2407/2506 02008KT CAVOK TX30/2412Z TN24/2504Z PROB30
TEMPO 2407/2418 TS FEW050CB
BECMG 2409/2411 29008KT
BECMG 2418/2420 02006KT

Example: see airport list